Terminal Aerodrome Forecast
Issued by NWS Mt. Holly, NJ

Home | Current Version | Previous Version | Text Only | Print | Product List | Glossary On
Versions: 1 2 3 4 5 6 7 8 9 10 11 12 13 14 15 16 17 18 19 20 21
000
FTUS41 KPHI 212300
TAFPHL
TAF
KPHL 212338Z 2200/2306 32006KT P6SM BKN050
     FM220400 03008KT 6SM -RA SCT025 OVC040
     FM220900 03010KT 4SM -RA BR SCT009 OVC015
     FM221600 03012G20KT 4SM RA BKN015
     FM222100 36016G25KT 6SM -RA BKN020
     FM230200 35017KT P6SM OVC025=

USA.gov is the U.S. government's official web portal to all federal, state and local government web resources and services.